Time;durP1;ratioP1;P1;durP2;ratioP2;P2;SDS_P1;SDS_P2;PMS_P1;PMS_P2;Temp;Humidity;BMP_temperature;BMP_pressure;BME280_temperature;BME280_humidity;BME280_pressure;Samples;Min_cycle;Max_cycle;Signal;HPM_P1;HPM_P2
2021/05/08 00:02:09;;;;;;;3.03;2.03;;;;;;;3.50;69.12;101081.64;128370;1101;62395;-74
2021/05/08 00:04:36;;;;;;;6.47;2.60;;;;;;;3.51;68.82;101083.32;128389;1101;63664;-74
2021/05/08 00:07:02;;;;;;;5.17;2.57;;;;;;;3.51;68.84;101083.32;128375;1101;62469;-74
2021/05/08 00:09:29;;;;;;;3.23;2.40;;;;;;;3.49;68.61;101079.16;128361;1101;62133;-74
2021/05/08 00:11:56;;;;;;;3.37;2.00;;;;;;;3.47;68.70;101081.89;128387;1101;62001;-74
2021/05/08 00:14:25;;;;;;;4.60;2.73;;;;;;;3.43;68.71;101081.28;128357;1101;62052;-74
2021/05/08 00:16:53;;;;;;;2.97;2.13;;;;;;;3.41;69.41;101082.36;128391;1101;62521;-74
2021/05/08 00:19:21;;;;;;;4.60;2.10;;;;;;;3.40;69.67;101081.53;128346;1101;62326;-74
2021/05/08 00:21:48;;;;;;;4.00;2.00;;;;;;;3.41;69.21;101092.85;128243;1102;62218;-74
2021/05/08 00:24:15;;;;;;;5.87;2.30;;;;;;;3.40;69.06;101084.16;128326;1101;62383;-74
2021/05/08 00:26:41;;;;;;;3.70;2.23;;;;;;;3.40;69.57;101085.92;128402;1101;62214;-74
2021/05/08 00:29:08;;;;;;;3.60;2.17;;;;;;;3.42;69.84;101081.39;128288;1101;62548;-74
2021/05/08 00:31:34;;;;;;;5.17;2.43;;;;;;;3.42;69.05;101073.52;128296;1101;62176;-74
2021/05/08 00:34:02;;;;;;;4.27;2.23;;;;;;;3.41;69.50;101082.36;128312;1101;62022;-74
2021/05/08 00:36:28;;;;;;;3.30;2.00;;;;;;;3.41;69.34;101087.61;128385;1101;62226;-74
2021/05/08 00:38:55;;;;;;;3.77;2.47;;;;;;;3.40;69.72;101083.30;128402;1101;62182;-74
2021/05/08 00:41:21;;;;;;;3.03;2.00;;;;;;;3.36;69.54;101079.24;128400;1101;63088;-74
2021/05/08 00:43:57;;;;;;;3.60;1.90;;;;;;;3.33;69.98;101076.88;128375;1101;62218;-74
2021/05/08 00:46:25;;;;;;;5.43;2.70;;;;;;;3.29;70.04;101088.55;128411;1101;62593;-74
2021/05/08 00:48:55;;;;;;;4.03;1.80;;;;;;;3.22;69.77;101073.28;128390;1101;62179;-74
2021/05/08 00:51:22;;;;;;;3.80;2.50;;;;;;;3.19;69.91;101084.02;128417;1101;62146;-74
2021/05/08 00:53:49;;;;;;;3.10;2.20;;;;;;;3.17;69.76;101085.92;128392;1101;62240;-74
2021/05/08 00:56:16;;;;;;;4.63;2.40;;;;;;;3.16;70.20;101083.41;128370;1101;62438;-74
2021/05/08 00:58:43;;;;;;;3.80;2.07;;;;;;;3.15;69.80;101086.99;128436;1101;62193;-74
2021/05/08 01:01:09;;;;;;;4.03;1.97;;;;;;;3.14;70.61;101085.31;128355;1101;62139;-74
2021/05/08 01:03:36;;;;;;;4.07;2.00;;;;;;;3.13;70.81;101087.10;128344;1101;62307;-75
2021/05/08 01:06:03;;;;;;;4.73;2.40;;;;;;;3.11;70.73;101089.00;128386;1101;62365;-75
2021/05/08 01:08:31;;;;;;;3.63;2.27;;;;;;;3.10;71.36;101084.70;128326;1101;62195;-75
2021/05/08 01:10:58;;;;;;;6.23;2.60;;;;;;;3.07;70.89;101077.09;128370;1100;62233;-75
2021/05/08 01:13:25;;;;;;;5.27;2.67;;;;;;;3.04;71.33;101085.19;128358;1101;62305;-75
2021/05/08 01:15:52;;;;;;;3.33;2.47;;;;;;;3.01;71.47;101085.41;128357;1101;62462;-75
2021/05/08 01:18:19;;;;;;;5.03;2.87;;;;;;;3.00;71.25;101089.00;128279;1101;62246;-75
2021/05/08 01:20:46;;;;;;;4.53;2.83;;;;;;;2.98;71.80;101091.72;128279;1101;62384;-75
2021/05/08 01:23:12;;;;;;;7.90;2.60;;;;;;;2.98;71.88;101085.66;128337;1101;62144;-75
2021/05/08 01:25:39;;;;;;;4.53;2.70;;;;;;;2.98;71.87;101085.66;128363;1101;62141;-75
2021/05/08 01:28:05;;;;;;;3.67;2.40;;;;;;;2.96;71.52;101082.31;128399;1101;62153;-75
2021/05/08 01:30:34;;;;;;;4.90;2.30;;;;;;;2.94;71.48;101084.22;128353;1101;62562;-75
2021/05/08 01:33:02;;;;;;;3.20;2.17;;;;;;;2.91;72.44;101085.29;128268;1101;64166;-75
2021/05/08 01:35:30;;;;;;;3.60;2.47;;;;;;;2.89;72.19;101086.33;128283;1101;62987;-75
2021/05/08 01:37:59;;;;;;;3.47;2.40;;;;;;;2.88;72.41;101087.30;128343;1101;62321;-75
2021/05/08 01:40:31;;;;;;;3.73;2.67;;;;;;;2.85;72.72;101093.61;128241;1101;63065;-75
2021/05/08 01:42:58;;;;;;;5.03;2.80;;;;;;;2.83;72.57;101093.71;128021;1101;62522;-75
2021/05/08 01:45:26;;;;;;;4.87;2.60;;;;;;;2.84;72.27;101100.61;128249;1101;62296;-75
2021/05/08 01:47:57;;;;;;;5.17;2.90;;;;;;;2.82;72.14;101097.27;128260;1101;62266;-75
2021/05/08 01:50:26;;;;;;;5.30;2.37;;;;;;;2.83;72.46;101098.95;128303;1101;63246;-75
2021/05/08 01:52:53;;;;;;;3.80;2.83;;;;;;;2.81;72.24;101098.23;128329;1101;62284;-75
2021/05/08 01:55:22;;;;;;;3.93;2.63;;;;;;;2.78;72.56;101103.68;128342;1101;62242;-75
2021/05/08 01:57:54;;;;;;;4.87;2.60;;;;;;;2.77;72.33;101099.41;128373;1101;62306;-75
2021/05/08 02:00:22;;;;;;;4.00;2.40;;;;;;;2.73;72.69;101100.58;128346;1101;62048;-75
2021/05/08 02:02:51;;;;;;;6.30;2.50;;;;;;;2.70;72.72;101092.97;128267;1102;62368;-76
2021/05/08 02:05:18;;;;;;;3.63;2.10;;;;;;;2.65;72.26;101095.08;128325;1101;62887;-75
2021/05/08 02:07:45;;;;;;;2.77;1.70;;;;;;;2.58;72.54;101097.31;128378;1101;62734;-75
2021/05/08 02:10:13;;;;;;;3.93;2.37;;;;;;;2.52;72.81;101091.70;128172;1101;62986;-75
2021/05/08 02:12:40;;;;;;;4.27;2.73;;;;;;;2.51;72.84;101097.87;128308;1101;64259;-75
2021/05/08 02:15:09;;;;;;;8.40;3.27;;;;;;;2.48;73.42;101100.73;128307;1101;62552;-75
2021/05/08 02:17:36;;;;;;;6.43;2.80;;;;;;;2.43;72.96;101101.89;128339;1101;62566;-75
2021/05/08 02:20:26;;;;;;;5.23;2.53;;;;;;;2.41;73.41;101093.31;128324;1101;63191;-75
2021/05/08 02:22:59;;;;;;;5.80;2.50;;;;;;;2.37;73.93;101099.72;128273;1101;64384;-74
2021/05/08 02:25:27;;;;;;;4.30;2.13;;;;;;;2.31;73.94;101105.40;128244;1101;62306;-75
2021/05/08 02:27:54;;;;;;;3.47;2.03;;;;;;;2.25;73.95;101095.37;128213;1101;64233;-75
2021/05/08 02:30:26;;;;;;;3.67;2.23;;;;;;;2.21;73.90;101091.30;128251;1101;62501;-75
2021/05/08 02:32:53;;;;;;;4.23;2.50;;;;;;;2.15;74.59;101102.24;128217;1101;62176;-75
2021/05/08 02:35:21;;;;;;;4.63;3.10;;;;;;;2.12;74.20;101098.03;128333;1101;62070;-75
2021/05/08 02:37:48;;;;;;;4.23;3.20;;;;;;;2.10;74.38;101093.86;128448;1101;62075;-75
2021/05/08 02:40:21;;;;;;;4.47;2.50;;;;;;;2.07;74.91;101094.93;128354;1101;62301;-75
2021/05/08 02:42:49;;;;;;;6.10;3.00;;;;;;;2.05;74.88;101096.81;128364;1101;62170;-75
2021/05/08 02:45:17;;;;;;;5.13;2.70;;;;;;;2.04;75.62;101095.16;128118;1101;62530;-75
2021/05/08 02:47:46;;;;;;;4.53;2.33;;;;;;;2.02;75.62;101097.05;128375;1101;62250;-75
2021/05/08 02:50:16;;;;;;;5.50;3.10;;;;;;;1.99;76.07;101098.08;128394;1101;62117;-75
2021/05/08 02:52:44;;;;;;;4.53;3.03;;;;;;;2.00;77.32;101105.00;128372;1101;62708;-75
2021/05/08 02:55:12;;;;;;;10.13;3.73;;;;;;;2.01;77.07;101101.42;128397;1101;62206;-75
2021/05/08 02:57:39;;;;;;;5.77;3.17;;;;;;;2.01;76.89;101106.66;128393;1101;62354;-75
2021/05/08 03:00:08;;;;;;;5.07;3.23;;;;;;;2.03;77.00;101096.92;128400;1101;62214;-75
2021/05/08 03:02:34;;;;;;;5.20;3.20;;;;;;;2.04;76.49;101089.93;128365;1101;62244;-74
2021/05/08 03:05:02;;;;;;;6.17;3.33;;;;;;;2.04;76.89;101108.24;128401;1101;62337;-75
2021/05/08 03:07:29;;;;;;;7.33;3.50;;;;;;;2.01;76.80;101097.98;128324;1101;62764;-75
2021/05/08 03:09:55;;;;;;;4.97;2.93;;;;;;;1.98;76.45;101096.42;128392;1101;62488;-75
2021/05/08 03:12:22;;;;;;;4.37;2.83;;;;;;;1.95;76.94;101099.24;128329;1101;62227;-75
2021/05/08 03:14:50;;;;;;;7.13;3.10;;;;;;;1.91;77.23;101095.17;128334;1101;62352;-75
2021/05/08 03:17:17;;;;;;;6.40;3.10;;;;;;;1.88;77.61;101095.40;128346;1101;62295;-75
2021/05/08 03:19:44;;;;;;;6.17;3.43;;;;;;;1.87;77.74;101096.36;128422;1101;62193;-75
2021/05/08 03:22:11;;;;;;;10.00;3.43;;;;;;;1.85;77.43;101103.48;128260;1101;63408;-75
2021/05/08 03:24:37;;;;;;;5.37;3.80;;;;;;;1.83;78.31;101100.14;128367;1101;62552;-75
2021/05/08 03:27:04;;;;;;;5.83;3.87;;;;;;;1.84;79.13;101093.95;128325;1101;62767;-75
2021/05/08 03:29:31;;;;;;;4.90;3.33;;;;;;;1.83;78.81;101095.73;128357;1101;63990;-75
2021/05/08 03:31:57;;;;;;;7.87;3.53;;;;;;;1.83;78.55;101098.34;128331;1101;62618;-73
2021/05/08 03:34:24;;;;;;;5.23;3.43;;;;;;;1.82;78.93;101090.59;128381;1101;62353;-75
2021/05/08 03:36:51;;;;;;;8.57;3.87;;;;;;;1.82;79.14;101090.59;128382;1101;62523;-75
2021/05/08 03:39:17;;;;;;;5.50;3.80;;;;;;;1.84;79.17;101091.33;128396;1101;63106;-75
2021/05/08 03:41:44;;;;;;;12.40;4.33;;;;;;;1.86;78.82;101092.06;128351;1101;63022;-75
2021/05/08 03:44:10;;;;;;;8.07;3.70;;;;;;;1.87;78.89;101087.66;128444;1101;62088;-75
2021/05/08 03:46:37;;;;;;;9.17;4.83;;;;;;;1.87;78.49;101093.74;128377;1101;64011;-75
2021/05/08 03:49:05;;;;;;;6.17;3.67;;;;;;;1.88;79.37;101095.40;128333;1101;62547;-75
2021/05/08 03:51:32;;;;;;;5.27;3.30;;;;;;;1.87;79.08;101087.66;128380;1101;62357;-76
2021/05/08 03:53:59;;;;;;;6.80;3.60;;;;;;;1.86;78.78;101092.06;128400;1101;62127;-75
2021/05/08 03:56:26;;;;;;;7.87;3.90;;;;;;;1.84;78.66;101086.92;128385;1101;62279;-75
2021/05/08 03:58:52;;;;;;;6.83;4.43;;;;;;;1.86;78.09;101092.06;127943;1101;62838;-75
2021/05/08 04:01:19;;;;;;;6.63;4.40;;;;;;;1.88;78.87;101099.80;128300;1101;62252;-75
2021/05/08 04:03:46;;;;;;;8.07;4.50;;;;;;;1.88;78.82;101095.40;128350;1101;62108;-76
2021/05/08 04:06:12;;;;;;;6.33;4.70;;;;;;;1.90;78.87;101103.98;128237;1101;62292;-76
2021/05/08 04:08:39;;;;;;;5.17;3.77;;;;;;;1.91;79.12;101100.41;128429;1101;62513;-76
2021/05/08 04:11:06;;;;;;;8.60;4.00;;;;;;;1.92;78.85;101112.55;128338;1101;62262;-76
2021/05/08 04:13:33;;;;;;;7.60;4.73;;;;;;;1.93;79.51;101101.13;128347;1101;62122;-76
2021/05/08 04:15:59;;;;;;;7.60;4.90;;;;;;;1.97;79.67;101104.38;128369;1101;62331;-75
2021/05/08 04:18:31;;;;;;;7.40;4.97;;;;;;;2.02;79.55;101108.34;128397;1101;62064;-75
2021/05/08 04:20:57;;;;;;;10.10;5.13;;;;;;;2.10;79.34;101104.33;128442;1101;62234;-75
2021/05/08 04:23:24;;;;;;;7.87;4.83;;;;;;;2.16;79.35;101106.52;128383;1101;62130;-75
2021/05/08 04:25:51;;;;;;;7.77;5.20;;;;;;;2.21;79.34;101109.63;128369;1101;63001;-76
2021/05/08 04:28:17;;;;;;;6.90;5.03;;;;;;;2.26;79.48;101099.67;128378;1101;62272;-75
2021/05/08 04:30:44;;;;;;;7.53;4.47;;;;;;;2.31;78.95;101108.02;128381;1101;62350;-75
2021/05/08 04:33:19;;;;;;;10.60;4.73;;;;;;;2.36;79.06;101105.92;128295;1101;62584;-75
2021/05/08 04:35:46;;;;;;;8.53;5.20;;;;;;;2.45;78.86;101110.47;128400;1101;62525;-75
2021/05/08 04:38:15;;;;;;;6.63;5.07;;;;;;;2.52;78.85;101105.63;128389;1101;62014;-75
2021/05/08 04:40:42;;;;;;;7.80;5.23;;;;;;;2.62;78.35;101111.03;128130;1103;62119;-75
2021/05/08 04:43:08;;;;;;;5.40;4.23;;;;;;;2.70;78.35;101113.92;128363;1101;62761;-75
2021/05/08 04:45:36;;;;;;;7.63;4.80;;;;;;;2.80;77.91;101117.50;128391;1101;63996;-75
2021/05/08 04:48:03;;;;;;;7.43;4.80;;;;;;;2.89;77.65;101112.53;128366;1101;64145;-75
2021/05/08 04:50:30;;;;;;;7.47;4.57;;;;;;;2.99;77.50;101103.03;128380;1101;62089;-75
2021/05/08 04:52:56;;;;;;;7.70;4.37;;;;;;;3.09;77.34;101111.88;128374;1101;62970;-75
2021/05/08 04:55:23;;;;;;;6.20;4.30;;;;;;;3.18;77.24;101116.41;128399;1101;62298;-75
2021/05/08 04:57:50;;;;;;;8.17;4.17;;;;;;;3.30;76.98;101116.45;128359;1101;62024;-75
2021/05/08 05:00:18;;;;;;;6.43;4.60;;;;;;;3.44;76.90;101113.58;128402;1101;62758;-75
2021/05/08 05:02:46;;;;;;;7.43;5.60;;;;;;;3.56;76.21;101115.26;128355;1101;62375;-75
2021/05/08 05:05:19;;;;;;;7.97;5.00;;;;;;;3.71;76.14;101115.03;128380;1101;62376;-75
2021/05/08 05:07:47;;;;;;;9.73;4.83;;;;;;;3.85;75.89;101112.16;128329;1101;62394;-75
2021/05/08 05:10:15;;;;;;;13.17;4.77;;;;;;;3.97;75.83;101119.04;128383;1101;62248;-75
2021/05/08 05:12:43;;;;;;;8.63;4.57;;;;;;;4.09;74.87;101120.70;128384;1101;62178;-75
2021/05/08 05:15:11;;;;;;;10.13;4.57;;;;;;;4.19;75.65;101119.98;128150;1102;62476;-73
2021/05/08 05:17:37;;;;;;;5.93;3.57;;;;;;;4.31;74.90;101118.97;128391;1101;62137;-73
2021/05/08 05:20:05;;;;;;;5.50;4.20;;;;;;;4.43;74.52;101123.24;128340;1101;61981;-73
2021/05/08 05:22:31;;;;;;;5.97;4.07;;;;;;;4.53;74.18;101119.86;128414;1101;62097;-73
2021/05/08 05:24:58;;;;;;;7.73;4.73;;;;;;;4.61;74.00;101120.92;128106;1103;63049;-73
2021/05/08 05:27:24;;;;;;;8.30;5.47;;;;;;;4.71;73.60;101120.98;128372;1101;62354;-73
2021/05/08 05:29:52;;;;;;;7.20;5.00;;;;;;;4.82;73.99;101126.18;128419;1101;63395;-75
2021/05/08 05:32:19;;;;;;;8.30;5.30;;;;;;;4.96;72.61;101125.05;128365;1101;62323;-75
2021/05/08 05:34:46;;;;;;;10.80;6.00;;;;;;;5.10;73.18;101126.55;128380;1101;64343;-74
2021/05/08 05:37:12;;;;;;;9.70;4.90;;;;;;;5.22;72.46;101128.12;128245;1101;63688;-74
2021/05/08 05:39:39;;;;;;;9.23;5.10;;;;;;;5.34;72.52;101120.17;128370;1101;62614;-74
2021/05/08 05:42:05;;;;;;;7.67;5.30;;;;;;;5.45;71.33;101120.91;128373;1101;62586;-74
2021/05/08 05:44:32;;;;;;;8.83;5.80;;;;;;;5.55;70.58;101133.27;128398;1101;62342;-74
2021/05/08 05:46:59;;;;;;;9.30;6.20;;;;;;;5.65;70.26;101137.64;128334;1101;62326;-74
2021/05/08 05:49:26;;;;;;;9.30;6.87;;;;;;;5.74;70.59;101130.74;128376;1101;62906;-74
2021/05/08 05:51:53;;;;;;;9.97;6.60;;;;;;;5.85;69.48;101122.73;128163;1101;62493;-74
2021/05/08 05:54:21;;;;;;;9.27;6.70;;;;;;;5.96;69.16;101135.00;128206;1101;62617;-75
2021/05/08 05:56:47;;;;;;;7.93;6.07;;;;;;;6.07;68.91;101132.24;128364;1101;62748;-74
2021/05/08 05:59:14;;;;;;;6.67;4.40;;;;;;;6.16;68.70;101135.87;128393;1101;63055;-74
2021/05/08 06:01:40;;;;;;;9.03;6.93;;;;;;;6.29;68.76;101132.98;128339;1101;62713;-74
2021/05/08 06:04:07;;;;;;;12.30;7.63;;;;;;;6.38;68.01;101140.09;128365;1101;62038;-74
2021/05/08 06:06:34;;;;;;;8.37;6.70;;;;;;;6.47;67.18;101139.25;128129;1102;62526;-74
2021/05/08 06:09:01;;;;;;;11.73;7.20;;;;;;;6.60;67.08;101138.98;128346;1101;62388;-74
2021/05/08 06:11:27;;;;;;;13.20;7.43;;;;;;;6.72;66.59;101144.97;128363;1101;62374;-74
2021/05/08 06:13:54;;;;;;;16.27;6.20;;;;;;;6.81;66.54;101141.48;128364;1101;62832;-74
2021/05/08 06:16:20;;;;;;;13.70;7.47;;;;;;;6.91;65.14;101144.96;128337;1101;62476;-74
2021/05/08 06:18:47;;;;;;;9.73;5.67;;;;;;;6.99;65.59;101131.08;128395;1101;62125;-76
2021/05/08 06:21:15;;;;;;;9.70;5.97;;;;;;;7.08;65.20;101137.31;128363;1101;62546;-76
2021/05/08 06:23:42;;;;;;;7.87;4.50;;;;;;;7.13;64.62;101146.45;128329;1101;62224;-76
2021/05/08 06:26:09;;;;;;;10.07;6.70;;;;;;;7.19;65.04;101141.60;128325;1101;62532;-71
2021/05/08 06:28:35;;;;;;;10.83;8.10;;;;;;;7.24;64.55;101148.09;128356;1101;62420;-73
2021/05/08 06:31:02;;;;;;;8.07;5.27;;;;;;;7.34;65.22;101135.72;128305;1101;62237;-72
2021/05/08 06:33:29;;;;;;;9.07;7.10;;;;;;;7.41;64.76;101138.61;128317;1101;62263;-73
2021/05/08 06:35:55;;;;;;;7.27;3.83;;;;;;;7.50;64.53;101147.48;128417;1101;62976;-73
2021/05/08 06:38:23;;;;;;;9.57;6.40;;;;;;;7.61;64.80;101142.04;128365;1101;62554;-73
2021/05/08 06:40:49;;;;;;;8.57;6.53;;;;;;;7.72;64.78;101141.85;128322;1101;62141;-72
2021/05/08 06:43:16;;;;;;;11.50;7.43;;;;;;;7.88;64.91;101145.67;128346;1101;62216;-72
2021/05/08 06:45:42;;;;;;;8.77;6.77;;;;;;;8.00;63.38;101144.50;128259;1101;62115;-73
2021/05/08 06:48:09;;;;;;;9.47;6.13;;;;;;;8.11;63.58;101140.83;128380;1101;62153;-73
2021/05/08 06:50:36;;;;;;;5.60;4.50;;;;;;;8.20;62.68;101139.11;128373;1101;64249;-73
2021/05/08 06:53:03;;;;;;;7.97;5.57;;;;;;;8.29;63.08;101138.23;128367;1101;62291;-73
2021/05/08 06:55:29;;;;;;;9.10;5.83;;;;;;;8.38;63.68;101142.61;128430;1101;62190;-73
2021/05/08 06:57:59;;;;;;;6.97;4.93;;;;;;;8.46;60.77;101142.73;128367;1101;62875;-73
2021/05/08 07:00:25;;;;;;;9.73;6.20;;;;;;;8.53;61.97;101135.84;128424;1101;62109;-72
2021/05/08 07:02:52;;;;;;;7.13;5.63;;;;;;;8.62;62.31;101141.22;128319;1101;62519;-73
2021/05/08 07:05:19;;;;;;;10.37;5.60;;;;;;;8.70;61.66;101146.59;128357;1101;62185;-72
2021/05/08 07:07:45;;;;;;;7.87;5.03;;;;;;;8.73;61.04;101136.55;128389;1101;62487;-73
2021/05/08 07:10:12;;;;;;;4.97;3.70;;;;;;;8.76;59.54;101141.52;128393;1101;62292;-72
2021/05/08 07:12:39;;;;;;;7.70;5.63;;;;;;;8.82;58.80;101137.45;128167;1101;62736;-72
2021/05/08 07:15:06;;;;;;;9.57;5.77;;;;;;;8.87;57.44;101137.80;128410;1101;62764;-72
2021/05/08 07:17:33;;;;;;;5.93;4.00;;;;;;;8.97;58.76;101138.55;128319;1101;62181;-72
2021/05/08 07:20:00;;;;;;;7.13;5.43;;;;;;;9.08;57.85;101140.13;128147;1101;62123;-73
2021/05/08 07:22:27;;;;;;;7.10;5.47;;;;;;;9.21;58.77;101137.07;128353;1101;62517;-72
2021/05/08 07:24:55;;;;;;;7.53;4.40;;;;;;;9.26;56.88;101132.13;128383;1101;62846;-73
2021/05/08 07:27:22;;;;;;;6.87;5.70;;;;;;;9.35;55.44;101130.36;128374;1101;62891;-72
2021/05/08 07:29:49;;;;;;;6.50;3.20;;;;;;;9.37;55.51;101128.39;128369;1101;62091;-73
2021/05/08 07:32:16;;;;;;;9.83;7.77;;;;;;;9.47;56.79;101138.88;128365;1101;62097;-73
2021/05/08 07:34:42;;;;;;;10.77;6.73;;;;;;;9.53;55.36;101130.31;128390;1101;63233;-73
2021/05/08 07:37:09;;;;;;;8.43;7.03;;;;;;;9.57;55.23;101139.61;128332;1101;61940;-73
2021/05/08 07:39:35;;;;;;;10.63;6.43;;;;;;;9.58;55.59;101139.46;128364;1101;62162;-73
2021/05/08 07:42:02;;;;;;;6.23;4.57;;;;;;;9.69;55.91;101133.05;128322;1101;62259;-73
2021/05/08 07:44:29;;;;;;;8.23;5.83;;;;;;;9.80;56.54;101134.59;128361;1101;62229;-73
2021/05/08 07:46:56;;;;;;;8.03;6.00;;;;;;;9.90;55.66;101134.45;128357;1101;62019;-73
2021/05/08 07:49:23;;;;;;;6.57;4.50;;;;;;;10.01;53.71;101123.58;128284;1101;62473;-73
2021/05/08 07:51:49;;;;;;;8.67;5.70;;;;;;;10.16;54.25;101119.31;128314;1101;63036;-73
2021/05/08 07:54:16;;;;;;;6.70;3.80;;;;;;;10.27;53.16;101122.66;128307;1101;62632;-73
2021/05/08 07:56:42;;;;;;;9.47;6.07;;;;;;;10.35;51.56;101112.09;128341;1101;62351;-73
2021/05/08 07:59:09;;;;;;;8.83;4.63;;;;;;;10.44;51.54;101116.41;128080;1101;62359;-73
2021/05/08 08:01:36;;;;;;;9.23;6.30;;;;;;;10.58;50.11;101117.58;128374;1101;63955;-73
2021/05/08 08:04:03;;;;;;;9.13;5.83;;;;;;;10.71;50.26;101106.47;128365;1101;62146;-73
2021/05/08 08:06:30;;;;;;;6.27;4.70;;;;;;;10.82;50.37;101106.16;128353;1101;62191;-73
2021/05/08 08:08:56;;;;;;;9.37;6.73;;;;;;;10.93;49.99;101105.81;128296;1101;62469;-73
2021/05/08 08:11:23;;;;;;;7.57;5.40;;;;;;;11.02;48.99;101112.77;128245;1101;63447;-73
2021/05/08 08:13:50;;;;;;;5.03;3.67;;;;;;;11.13;49.45;101105.45;128352;1101;62334;-73
2021/05/08 08:16:18;;;;;;;7.37;4.60;;;;;;;11.31;49.74;101100.78;128318;1101;63045;-72
2021/05/08 08:18:45;;;;;;;4.53;3.43;;;;;;;11.39;47.22;101100.77;128332;1102;62276;-72
2021/05/08 08:21:12;;;;;;;8.53;5.63;;;;;;;11.53;47.94;101096.55;128363;1101;62153;-71
2021/05/08 08:23:38;;;;;;;7.90;5.37;;;;;;;11.49;46.42;101113.02;128313;1101;62244;-71
2021/05/08 08:26:05;;;;;;;6.93;5.20;;;;;;;11.39;46.68;101108.73;128356;1101;62045;-71
2021/05/08 08:28:32;;;;;;;7.37;4.70;;;;;;;11.39;47.61;101106.08;128281;1101;61958;-71
2021/05/08 08:30:58;;;;;;;5.70;4.03;;;;;;;11.43;45.09;101112.70;128358;1101;62536;-71
2021/05/08 08:33:25;;;;;;;6.20;4.17;;;;;;;11.39;46.09;101110.53;128270;1101;62156;-71
2021/05/08 08:35:54;;;;;;;8.50;5.30;;;;;;;11.42;45.86;101119.00;128302;1101;62031;-72
2021/05/08 08:38:21;;;;;;;4.83;3.60;;;;;;;11.43;45.89;101118.02;128340;1101;62444;-72
2021/05/08 08:40:49;;;;;;;8.27;5.10;;;;;;;11.49;46.58;101120.98;128402;1101;63112;-72
2021/05/08 08:43:16;;;;;;;6.00;4.30;;;;;;;11.71;47.72;101117.60;128358;1101;62562;-71
2021/05/08 08:45:44;;;;;;;32.00;22.70;;;;;;;12.02;46.92;101111.50;128355;1101;62217;-71
2021/05/08 08:48:11;;;;;;;10.27;4.40;;;;;;;12.33;45.59;101111.49;128332;1101;62259;-72
2021/05/08 08:50:39;;;;;;;4.60;2.93;;;;;;;12.45;42.16;101111.90;128331;1101;62319;-71
2021/05/08 08:53:09;;;;;;;5.23;4.00;;;;;;;12.46;42.62;101112.75;128359;1101;62850;-72
2021/05/08 08:55:39;;;;;;;5.47;3.23;;;;;;;12.47;42.40;101099.25;128384;1101;62676;-72
2021/05/08 08:58:06;;;;;;;3.47;2.40;;;;;;;12.56;42.27;101107.99;128359;1101;62192;-72
2021/05/08 09:00:33;;;;;;;5.80;3.80;;;;;;;12.64;40.77;101095.48;128355;1101;62424;-72
2021/05/08 09:03:02;;;;;;;4.73;3.80;;;;;;;12.70;40.54;101098.42;128322;1101;62356;-74
2021/05/08 09:05:31;;;;;;;5.63;4.20;;;;;;;12.88;42.00;101101.60;128520;1101;63224;-75
2021/05/08 09:08:05;;;;;;;4.40;3.37;;;;;;;13.03;41.98;101098.97;128587;1101;63556;-75
2021/05/08 09:10:32;;;;;;;6.60;4.17;;;;;;;13.03;40.51;101089.13;128403;1101;62541;-75
2021/05/08 09:13:01;;;;;;;5.20;3.17;;;;;;;13.13;39.75;101093.36;128331;1101;62428;-74
2021/05/08 09:15:36;;;;;;;5.77;2.83;;;;;;;13.23;39.46;101080.61;128439;1101;62210;-76
2021/05/08 09:18:04;;;;;;;5.27;2.97;;;;;;;13.30;38.85;101073.56;128357;1101;63229;-76
2021/05/08 09:20:46;;;;;;;6.57;3.23;;;;;;;13.47;39.45;101076.87;128538;1101;62026;-75
2021/05/08 09:23:21;;;;;;;4.50;3.00;;;;;;;13.52;39.71;101076.34;128431;1101;62144;-75
2021/05/08 09:26:06;;;;;;;5.78;3.58;;;;;;;13.58;39.99;101071.09;128407;1101;62257;-76
2021/05/08 09:28:35;;;;;;;5.17;3.03;;;;;;;13.69;39.83;101067.13;128409;1101;62027;-75
2021/05/08 09:31:04;;;;;;;5.17;2.50;;;;;;;13.78;38.13;101060.66;128165;1102;62717;-75
2021/05/08 09:33:32;;;;;;;5.07;3.20;;;;;;;13.94;36.25;101067.63;128409;1101;62270;-75
2021/05/08 09:36:00;;;;;;;4.10;2.50;;;;;;;14.13;37.15;101060.02;128336;1101;62150;-76
2021/05/08 09:38:39;;;;;;;6.80;4.20;;;;;;;14.15;37.08;101069.47;128440;1101;62943;-76
2021/05/08 09:41:16;;;;;;;6.37;3.80;;;;;;;14.15;37.37;101069.47;128392;1101;62327;-76
2021/05/08 09:43:44;;;;;;;6.30;3.43;;;;;;;14.30;37.25;101064.08;128409;1101;62319;-75
2021/05/08 09:46:25;;;;;;;6.67;3.80;;;;;;;14.38;37.50;101055.13;128368;1101;62197;-75
2021/05/08 09:49:11;;;;;;;5.47;3.20;;;;;;;14.47;36.71;101049.48;128416;1101;62406;-75
2021/05/08 09:51:38;;;;;;;6.30;4.57;;;;;;;14.42;36.42;101037.72;128411;1101;62142;-75
2021/05/08 09:54:13;;;;;;;3.97;3.13;;;;;;;14.54;37.26;101046.87;128442;1101;62451;-75
2021/05/08 09:56:48;;;;;;;5.97;3.83;;;;;;;14.70;37.06;101036.95;128395;1101;62847;-74
2021/05/08 09:59:31;;;;;;;5.90;3.57;;;;;;;14.96;36.04;101028.30;128374;1101;62336;-75
2021/05/08 10:02:04;;;;;;;3.90;3.13;;;;;;;15.18;35.19;101023.72;128430;1101;62179;-76
2021/05/08 10:04:44;;;;;;;5.33;3.07;;;;;;;15.28;34.57;101018.84;128414;1101;62772;-74
2021/05/08 10:07:21;;;;;;;4.97;3.27;;;;;;;15.37;34.84;101011.48;128403;1101;62362;-74
2021/05/08 10:09:51;;;;;;;5.87;3.47;;;;;;;15.54;34.83;101017.31;128409;1101;62182;-74
2021/05/08 10:12:20;;;;;;;6.27;2.73;;;;;;;15.53;33.97;101012.97;128360;1101;62856;-74
2021/05/08 10:14:52;;;;;;;4.77;2.37;;;;;;;15.51;33.67;101007.81;128137;1101;62169;-74
2021/05/08 10:17:21;;;;;;;4.67;2.80;;;;;;;15.52;35.30;101006.81;128410;1101;62291;-74
2021/05/08 10:19:50;;;;;;;4.53;2.60;;;;;;;15.64;36.31;101004.36;128365;1101;62482;-74
2021/05/08 10:22:18;;;;;;;4.97;3.00;;;;;;;15.81;34.29;101007.53;128442;1101;62184;-74
2021/05/08 10:24:47;;;;;;;5.00;3.70;;;;;;;15.94;33.74;101002.23;128380;1101;62409;-74
2021/05/08 10:27:15;;;;;;;5.50;3.30;;;;;;;15.99;31.64;100996.27;128438;1101;62331;-74
2021/05/08 10:29:49;;;;;;;6.07;2.97;;;;;;;16.07;32.79;101001.44;128435;1101;62725;-75
2021/05/08 10:32:18;;;;;;;5.43;3.05;;;;;;;15.98;31.02;100992.78;128434;1101;62140;-74
2021/05/08 10:35:00;;;;;;;5.07;3.13;;;;;;;15.82;30.84;100999.31;128405;1101;62857;-75
2021/05/08 10:37:28;;;;;;;6.30;2.80;;;;;;;15.68;30.86;100994.92;128184;1101;62140;-74
2021/05/08 10:40:08;;;;;;;5.23;2.67;;;;;;;15.68;30.54;100986.89;128424;1101;62053;-74
2021/05/08 10:42:42;;;;;;;5.37;3.17;;;;;;;15.77;30.65;100979.54;128349;1101;62217;-75
2021/05/08 10:45:12;;;;;;;4.63;2.88;;;;;;;15.73;32.04;100973.79;128405;1101;62561;-74
2021/05/08 10:48:02;;;;;;;7.23;3.57;;;;;;;15.85;31.59;100972.17;128403;1101;61996;-74
2021/05/08 10:50:41;;;;;;;6.33;3.17;;;;;;;16.09;32.28;100961.91;128393;1101;62331;-74
2021/05/08 10:53:08;;;;;;;4.57;2.30;;;;;;;16.17;31.62;100958.20;128352;1101;62209;-74
2021/05/08 10:55:58;;;;;;;5.13;2.60;;;;;;;16.36;31.65;100940.48;128397;1101;62336;-75
2021/05/08 10:58:26;;;;;;;6.93;3.73;;;;;;;16.50;29.65;100963.55;128398;1101;64018;-73
2021/05/08 11:01:11;;;;;;;6.13;3.03;;;;;;;16.62;30.00;100945.82;128413;1101;62166;-74
2021/05/08 11:03:41;;;;;;;3.93;2.90;;;;;;;16.42;27.97;100943.16;128417;1101;63158;-75
2021/05/08 11:06:10;;;;;;;4.33;2.80;;;;;;;16.46;29.36;100948.92;128423;1101;62253;-75
2021/05/08 11:08:36;;;;;;;6.03;3.50;;;;;;;16.64;29.06;100942.91;128402;1101;62126;-74
2021/05/08 11:11:12;;;;;;;4.97;2.60;;;;;;;16.54;28.53;100947.90;128420;1101;62193;-75
2021/05/08 11:13:41;;;;;;;7.03;3.97;;;;;;;16.29;28.00;100951.20;128153;1101;62913;-75
2021/05/08 11:16:08;;;;;;;6.67;4.13;;;;;;;16.15;28.77;100941.52;128385;1101;62366;-75
2021/05/08 11:18:40;;;;;;;7.73;4.03;;;;;;;16.22;29.49;100940.50;128118;1101;62157;-75
2021/05/08 11:21:13;;;;;;;6.30;3.53;;;;;;;16.26;29.55;100932.89;128351;1101;64026;-75
2021/05/08 11:23:44;;;;;;;8.67;3.90;;;;;;;16.25;29.48;100932.05;128410;1101;62798;-75
2021/05/08 11:26:23;;;;;;;6.30;3.40;;;;;;;16.26;29.37;100923.00;128373;1101;62812;-74
2021/05/08 11:29:05;;;;;;;4.70;2.90;;;;;;;16.42;29.19;100918.23;128366;1101;62692;-74